sensor_id;sensor_type;location;lat;lon;timestamp;P1;durP1;ratioP1;P2;durP2;ratioP2
15261;SDS011;7733;51.554;13.590;2024-03-08T00:00:08;14.83;;;13.37;;
15261;SDS011;7733;51.554;13.590;2024-03-08T00:02:37;16.60;;;14.97;;
15261;SDS011;7733;51.554;13.590;2024-03-08T00:05:07;15.10;;;13.57;;
15261;SDS011;7733;51.554;13.590;2024-03-08T00:07:36;16.00;;;14.40;;
15261;SDS011;7733;51.554;13.590;2024-03-08T00:10:03;15.67;;;14.13;;
15261;SDS011;7733;51.554;13.590;2024-03-08T00:12:31;16.10;;;14.50;;
15261;SDS011;7733;51.554;13.590;2024-03-08T00:14:57;16.77;;;14.73;;
15261;SDS011;7733;51.554;13.590;2024-03-08T00:17:23;15.77;;;14.27;;
15261;SDS011;7733;51.554;13.590;2024-03-08T00:19:50;15.87;;;14.27;;
15261;SDS011;7733;51.554;13.590;2024-03-08T00:22:19;15.77;;;14.37;;
15261;SDS011;7733;51.554;13.590;2024-03-08T00:24:45;15.93;;;14.23;;
15261;SDS011;7733;51.554;13.590;2024-03-08T00:27:11;14.63;;;13.00;;
15261;SDS011;7733;51.554;13.590;2024-03-08T00:29:36;15.50;;;13.13;;
15261;SDS011;7733;51.554;13.590;2024-03-08T00:32:05;15.17;;;13.77;;
15261;SDS011;7733;51.554;13.590;2024-03-08T00:34:34;15.40;;;13.77;;
15261;SDS011;7733;51.554;13.590;2024-03-08T00:37:02;15.40;;;13.90;;
15261;SDS011;7733;51.554;13.590;2024-03-08T00:39:29;15.77;;;14.10;;
15261;SDS011;7733;51.554;13.590;2024-03-08T00:41:54;15.43;;;13.83;;
15261;SDS011;7733;51.554;13.590;2024-03-08T00:44:20;15.60;;;14.00;;
15261;SDS011;7733;51.554;13.590;2024-03-08T00:46:46;17.90;;;14.30;;
15261;SDS011;7733;51.554;13.590;2024-03-08T00:49:12;18.60;;;14.37;;
15261;SDS011;7733;51.554;13.590;2024-03-08T00:51:38;17.23;;;15.33;;
15261;SDS011;7733;51.554;13.590;2024-03-08T00:54:03;16.17;;;13.70;;
15261;SDS011;7733;51.554;13.590;2024-03-08T00:56:29;16.90;;;15.10;;
15261;SDS011;7733;51.554;13.590;2024-03-08T00:58:55;17.00;;;15.30;;
15261;SDS011;7733;51.554;13.590;2024-03-08T01:01:21;16.73;;;15.00;;
15261;SDS011;7733;51.554;13.590;2024-03-08T01:03:47;17.90;;;15.97;;
15261;SDS011;7733;51.554;13.590;2024-03-08T01:06:13;17.97;;;16.07;;
15261;SDS011;7733;51.554;13.590;2024-03-08T01:08:39;17.93;;;16.10;;
15261;SDS011;7733;51.554;13.590;2024-03-08T01:11:07;17.23;;;15.03;;
15261;SDS011;7733;51.554;13.590;2024-03-08T01:13:34;22.53;;;16.27;;
15261;SDS011;7733;51.554;13.590;2024-03-08T01:16:01;18.50;;;16.63;;
15261;SDS011;7733;51.554;13.590;2024-03-08T01:18:26;17.57;;;15.70;;
15261;SDS011;7733;51.554;13.590;2024-03-08T01:20:52;17.57;;;15.43;;
15261;SDS011;7733;51.554;13.590;2024-03-08T01:23:18;18.73;;;16.13;;
15261;SDS011;7733;51.554;13.590;2024-03-08T01:25:43;18.60;;;16.67;;
15261;SDS011;7733;51.554;13.590;2024-03-08T01:28:09;19.17;;;15.83;;
15261;SDS011;7733;51.554;13.590;2024-03-08T01:30:35;21.30;;;16.67;;
15261;SDS011;7733;51.554;13.590;2024-03-08T01:33:02;19.60;;;16.27;;
15261;SDS011;7733;51.554;13.590;2024-03-08T01:35:28;20.67;;;16.93;;
15261;SDS011;7733;51.554;13.590;2024-03-08T01:37:54;18.13;;;16.20;;
15261;SDS011;7733;51.554;13.590;2024-03-08T01:40:20;17.77;;;15.97;;
15261;SDS011;7733;51.554;13.590;2024-03-08T01:42:46;19.57;;;16.93;;
15261;SDS011;7733;51.554;13.590;2024-03-08T01:45:12;21.70;;;17.23;;
15261;SDS011;7733;51.554;13.590;2024-03-08T01:47:38;19.20;;;17.20;;
15261;SDS011;7733;51.554;13.590;2024-03-08T01:50:04;17.97;;;16.07;;
15261;SDS011;7733;51.554;13.590;2024-03-08T01:52:32;19.03;;;17.03;;
15261;SDS011;7733;51.554;13.590;2024-03-08T01:55:00;20.47;;;17.57;;
15261;SDS011;7733;51.554;13.590;2024-03-08T01:57:34;19.33;;;17.33;;
15261;SDS011;7733;51.554;13.590;2024-03-08T02:00:01;19.73;;;17.63;;
15261;SDS011;7733;51.554;13.590;2024-03-08T02:02:32;22.37;;;19.60;;
15261;SDS011;7733;51.554;13.590;2024-03-08T02:05:00;20.27;;;18.17;;
15261;SDS011;7733;51.554;13.590;2024-03-08T02:07:26;19.40;;;17.30;;
15261;SDS011;7733;51.554;13.590;2024-03-08T02:09:52;20.77;;;18.60;;
15261;SDS011;7733;51.554;13.590;2024-03-08T02:12:18;20.53;;;18.33;;
15261;SDS011;7733;51.554;13.590;2024-03-08T02:14:45;24.73;;;18.93;;
15261;SDS011;7733;51.554;13.590;2024-03-08T02:17:12;20.07;;;17.90;;
15261;SDS011;7733;51.554;13.590;2024-03-08T02:19:38;20.73;;;18.53;;
15261;SDS011;7733;51.554;13.590;2024-03-08T02:22:03;22.83;;;18.53;;
15261;SDS011;7733;51.554;13.590;2024-03-08T02:24:31;24.83;;;20.93;;
15261;SDS011;7733;51.554;13.590;2024-03-08T02:26:58;20.73;;;18.50;;
15261;SDS011;7733;51.554;13.590;2024-03-08T02:29:24;27.27;;;19.93;;
15261;SDS011;7733;51.554;13.590;2024-03-08T02:31:52;22.27;;;19.43;;
15261;SDS011;7733;51.554;13.590;2024-03-08T02:34:18;21.53;;;19.30;;
15261;SDS011;7733;51.554;13.590;2024-03-08T02:36:45;22.13;;;19.77;;
15261;SDS011;7733;51.554;13.590;2024-03-08T02:39:11;23.33;;;19.20;;
15261;SDS011;7733;51.554;13.590;2024-03-08T02:41:39;21.47;;;19.27;;
15261;SDS011;7733;51.554;13.590;2024-03-08T02:44:04;23.23;;;19.63;;
15261;SDS011;7733;51.554;13.590;2024-03-08T02:46:31;21.27;;;18.97;;
15261;SDS011;7733;51.554;13.590;2024-03-08T02:48:56;18.57;;;16.63;;
15261;SDS011;7733;51.554;13.590;2024-03-08T02:51:22;18.33;;;16.43;;
15261;SDS011;7733;51.554;13.590;2024-03-08T02:53:48;16.70;;;14.97;;
15261;SDS011;7733;51.554;13.590;2024-03-08T02:56:14;17.23;;;15.43;;
15261;SDS011;7733;51.554;13.590;2024-03-08T02:58:41;19.07;;;15.47;;
15261;SDS011;7733;51.554;13.590;2024-03-08T03:01:08;16.73;;;15.03;;
15261;SDS011;7733;51.554;13.590;2024-03-08T03:03:35;19.17;;;17.17;;
15261;SDS011;7733;51.554;13.590;2024-03-08T03:06:01;21.67;;;19.33;;
15261;SDS011;7733;51.554;13.590;2024-03-08T03:08:27;22.70;;;20.40;;
15261;SDS011;7733;51.554;13.590;2024-03-08T03:10:53;21.70;;;18.40;;
15261;SDS011;7733;51.554;13.590;2024-03-08T03:13:21;20.60;;;18.40;;
15261;SDS011;7733;51.554;13.590;2024-03-08T03:15:48;22.97;;;20.50;;
15261;SDS011;7733;51.554;13.590;2024-03-08T03:18:14;24.83;;;21.43;;
15261;SDS011;7733;51.554;13.590;2024-03-08T03:20:40;22.60;;;20.30;;
15261;SDS011;7733;51.554;13.590;2024-03-08T03:23:07;22.67;;;20.27;;
15261;SDS011;7733;51.554;13.590;2024-03-08T03:25:34;24.37;;;20.33;;
15261;SDS011;7733;51.554;13.590;2024-03-08T03:28:04;23.57;;;21.17;;
15261;SDS011;7733;51.554;13.590;2024-03-08T03:30:30;24.33;;;21.73;;
15261;SDS011;7733;51.554;13.590;2024-03-08T03:32:58;25.27;;;22.67;;
15261;SDS011;7733;51.554;13.590;2024-03-08T03:35:26;26.23;;;21.70;;
15261;SDS011;7733;51.554;13.590;2024-03-08T03:37:54;25.03;;;21.83;;
15261;SDS011;7733;51.554;13.590;2024-03-08T03:40:29;24.73;;;21.37;;
15261;SDS011;7733;51.554;13.590;2024-03-08T03:42:56;24.07;;;21.57;;
15261;SDS011;7733;51.554;13.590;2024-03-08T03:45:22;25.27;;;22.37;;
15261;SDS011;7733;51.554;13.590;2024-03-08T03:47:48;26.07;;;22.57;;
15261;SDS011;7733;51.554;13.590;2024-03-08T03:50:14;25.43;;;22.33;;
15261;SDS011;7733;51.554;13.590;2024-03-08T03:52:41;26.23;;;22.60;;
15261;SDS011;7733;51.554;13.590;2024-03-08T03:55:07;24.93;;;22.33;;
15261;SDS011;7733;51.554;13.590;2024-03-08T03:57:33;24.60;;;22.03;;
15261;SDS011;7733;51.554;13.590;2024-03-08T03:59:59;25.43;;;22.73;;
15261;SDS011;7733;51.554;13.590;2024-03-08T04:02:25;28.07;;;24.10;;
15261;SDS011;7733;51.554;13.590;2024-03-08T04:04:51;27.03;;;23.37;;
15261;SDS011;7733;51.554;13.590;2024-03-08T04:07:19;26.90;;;23.53;;
15261;SDS011;7733;51.554;13.590;2024-03-08T04:09:45;26.03;;;23.27;;
15261;SDS011;7733;51.554;13.590;2024-03-08T04:12:12;26.47;;;23.67;;
15261;SDS011;7733;51.554;13.590;2024-03-08T04:14:41;27.03;;;24.13;;
15261;SDS011;7733;51.554;13.590;2024-03-08T04:17:07;27.90;;;25.00;;
15261;SDS011;7733;51.554;13.590;2024-03-08T04:19:36;28.40;;;25.27;;
15261;SDS011;7733;51.554;13.590;2024-03-08T04:22:05;23.60;;;19.87;;
15261;SDS011;7733;51.554;13.590;2024-03-08T04:24:32;22.87;;;20.47;;
15261;SDS011;7733;51.554;13.590;2024-03-08T04:26:58;23.40;;;20.90;;
15261;SDS011;7733;51.554;13.590;2024-03-08T04:29:24;22.90;;;20.00;;
15261;SDS011;7733;51.554;13.590;2024-03-08T04:31:51;22.90;;;20.47;;
15261;SDS011;7733;51.554;13.590;2024-03-08T04:34:19;24.63;;;21.97;;
15261;SDS011;7733;51.554;13.590;2024-03-08T04:36:46;23.60;;;21.17;;
15261;SDS011;7733;51.554;13.590;2024-03-08T04:39:13;27.00;;;24.10;;
15261;SDS011;7733;51.554;13.590;2024-03-08T04:41:40;27.40;;;24.23;;
15261;SDS011;7733;51.554;13.590;2024-03-08T04:44:10;26.77;;;24.00;;
15261;SDS011;7733;51.554;13.590;2024-03-08T04:46:37;30.73;;;25.00;;
15261;SDS011;7733;51.554;13.590;2024-03-08T04:49:03;28.70;;;25.37;;
15261;SDS011;7733;51.554;13.590;2024-03-08T04:51:29;30.73;;;25.07;;
15261;SDS011;7733;51.554;13.590;2024-03-08T04:53:55;28.80;;;25.20;;
15261;SDS011;7733;51.554;13.590;2024-03-08T04:56:22;28.70;;;24.47;;
15261;SDS011;7733;51.554;13.590;2024-03-08T04:58:47;28.57;;;25.27;;
15261;SDS011;7733;51.554;13.590;2024-03-08T05:01:13;28.93;;;25.47;;
15261;SDS011;7733;51.554;13.590;2024-03-08T05:03:39;27.33;;;24.03;;
15261;SDS011;7733;51.554;13.590;2024-03-08T05:06:05;28.80;;;24.93;;
15261;SDS011;7733;51.554;13.590;2024-03-08T05:08:31;28.80;;;25.70;;
15261;SDS011;7733;51.554;13.590;2024-03-08T05:10:58;30.07;;;24.83;;
15261;SDS011;7733;51.554;13.590;2024-03-08T05:13:25;29.57;;;25.40;;
15261;SDS011;7733;51.554;13.590;2024-03-08T05:15:52;25.97;;;23.17;;
15261;SDS011;7733;51.554;13.590;2024-03-08T05:18:17;27.23;;;23.97;;
15261;SDS011;7733;51.554;13.590;2024-03-08T05:20:43;27.70;;;24.60;;
15261;SDS011;7733;51.554;13.590;2024-03-08T05:23:09;27.27;;;24.40;;
15261;SDS011;7733;51.554;13.590;2024-03-08T05:25:35;27.67;;;23.93;;
15261;SDS011;7733;51.554;13.590;2024-03-08T05:28:01;27.77;;;24.77;;
15261;SDS011;7733;51.554;13.590;2024-03-08T05:30:26;27.93;;;24.50;;
15261;SDS011;7733;51.554;13.590;2024-03-08T05:32:52;30.83;;;24.83;;
15261;SDS011;7733;51.554;13.590;2024-03-08T05:35:18;29.73;;;24.93;;
15261;SDS011;7733;51.554;13.590;2024-03-08T05:37:44;29.97;;;26.27;;
15261;SDS011;7733;51.554;13.590;2024-03-08T05:40:09;29.63;;;26.23;;
15261;SDS011;7733;51.554;13.590;2024-03-08T05:42:35;28.37;;;24.97;;
15261;SDS011;7733;51.554;13.590;2024-03-08T05:45:02;28.07;;;24.83;;
15261;SDS011;7733;51.554;13.590;2024-03-08T05:47:29;29.27;;;26.03;;
15261;SDS011;7733;51.554;13.590;2024-03-08T05:49:54;28.60;;;24.53;;
15261;SDS011;7733;51.554;13.590;2024-03-08T05:52:20;27.27;;;24.03;;
15261;SDS011;7733;51.554;13.590;2024-03-08T05:54:46;29.20;;;24.03;;
15261;SDS011;7733;51.554;13.590;2024-03-08T05:57:12;27.73;;;24.17;;
15261;SDS011;7733;51.554;13.590;2024-03-08T05:59:39;27.13;;;24.17;;
15261;SDS011;7733;51.554;13.590;2024-03-08T06:02:05;27.50;;;24.27;;
15261;SDS011;7733;51.554;13.590;2024-03-08T06:04:30;28.13;;;24.07;;
15261;SDS011;7733;51.554;13.590;2024-03-08T06:06:56;30.90;;;25.00;;
15261;SDS011;7733;51.554;13.590;2024-03-08T06:09:23;29.87;;;25.40;;
15261;SDS011;7733;51.554;13.590;2024-03-08T06:11:50;28.60;;;24.53;;
15261;SDS011;7733;51.554;13.590;2024-03-08T06:14:19;33.80;;;27.10;;
15261;SDS011;7733;51.554;13.590;2024-03-08T06:16:46;29.70;;;26.57;;
15261;SDS011;7733;51.554;13.590;2024-03-08T06:19:12;29.87;;;25.93;;
15261;SDS011;7733;51.554;13.590;2024-03-08T06:21:38;29.67;;;24.80;;
15261;SDS011;7733;51.554;13.590;2024-03-08T06:24:04;33.83;;;25.10;;
15261;SDS011;7733;51.554;13.590;2024-03-08T06:26:30;28.37;;;25.27;;
15261;SDS011;7733;51.554;13.590;2024-03-08T06:28:56;30.73;;;24.67;;
15261;SDS011;7733;51.554;13.590;2024-03-08T06:31:22;29.97;;;26.23;;
15261;SDS011;7733;51.554;13.590;2024-03-08T06:33:48;34.57;;;26.53;;
15261;SDS011;7733;51.554;13.590;2024-03-08T06:36:17;31.43;;;25.63;;
15261;SDS011;7733;51.554;13.590;2024-03-08T06:38:47;31.77;;;26.50;;
15261;SDS011;7733;51.554;13.590;2024-03-08T06:41:14;32.47;;;25.67;;
15261;SDS011;7733;51.554;13.590;2024-03-08T06:43:43;31.97;;;26.70;;
15261;SDS011;7733;51.554;13.590;2024-03-08T06:46:10;32.23;;;28.07;;
15261;SDS011;7733;51.554;13.590;2024-03-08T06:48:39;32.60;;;27.33;;
15261;SDS011;7733;51.554;13.590;2024-03-08T06:51:05;30.67;;;26.80;;
15261;SDS011;7733;51.554;13.590;2024-03-08T06:53:31;30.13;;;26.73;;
15261;SDS011;7733;51.554;13.590;2024-03-08T06:55:59;32.33;;;26.10;;
15261;SDS011;7733;51.554;13.590;2024-03-08T06:58:26;30.63;;;26.17;;
15261;SDS011;7733;51.554;13.590;2024-03-08T07:00:53;34.17;;;27.53;;
15261;SDS011;7733;51.554;13.590;2024-03-08T07:03:23;32.87;;;27.63;;
15261;SDS011;7733;51.554;13.590;2024-03-08T07:05:49;31.57;;;25.90;;
15261;SDS011;7733;51.554;13.590;2024-03-08T07:08:15;33.30;;;26.17;;
15261;SDS011;7733;51.554;13.590;2024-03-08T07:10:41;32.60;;;27.83;;
15261;SDS011;7733;51.554;13.590;2024-03-08T07:13:07;33.87;;;28.40;;
15261;SDS011;7733;51.554;13.590;2024-03-08T07:15:33;31.70;;;27.33;;
15261;SDS011;7733;51.554;13.590;2024-03-08T07:18:00;33.13;;;26.67;;
15261;SDS011;7733;51.554;13.590;2024-03-08T07:20:26;32.80;;;28.43;;
15261;SDS011;7733;51.554;13.590;2024-03-08T07:22:53;31.87;;;26.73;;
15261;SDS011;7733;51.554;13.590;2024-03-08T07:25:19;32.20;;;26.63;;
15261;SDS011;7733;51.554;13.590;2024-03-08T07:27:52;33.10;;;27.43;;
15261;SDS011;7733;51.554;13.590;2024-03-08T07:30:21;33.43;;;28.00;;
15261;SDS011;7733;51.554;13.590;2024-03-08T07:33:07;30.87;;;27.47;;
15261;SDS011;7733;51.554;13.590;2024-03-08T07:35:33;32.33;;;26.10;;
15261;SDS011;7733;51.554;13.590;2024-03-08T07:38:02;32.23;;;27.00;;
15261;SDS011;7733;51.554;13.590;2024-03-08T07:40:38;32.10;;;25.87;;
15261;SDS011;7733;51.554;13.590;2024-03-08T07:43:13;31.03;;;26.33;;
15261;SDS011;7733;51.554;13.590;2024-03-08T07:45:39;31.40;;;26.20;;
15261;SDS011;7733;51.554;13.590;2024-03-08T07:48:05;30.70;;;26.53;;
15261;SDS011;7733;51.554;13.590;2024-03-08T07:50:37;31.00;;;27.30;;
15261;SDS011;7733;51.554;13.590;2024-03-08T07:53:05;31.43;;;26.03;;
15261;SDS011;7733;51.554;13.590;2024-03-08T07:55:32;31.87;;;27.07;;
15261;SDS011;7733;51.554;13.590;2024-03-08T07:58:00;32.10;;;26.17;;
15261;SDS011;7733;51.554;13.590;2024-03-08T08:00:26;32.27;;;26.57;;
15261;SDS011;7733;51.554;13.590;2024-03-08T08:02:52;33.73;;;28.83;;
15261;SDS011;7733;51.554;13.590;2024-03-08T08:05:19;31.77;;;27.37;;
15261;SDS011;7733;51.554;13.590;2024-03-08T08:07:45;31.43;;;27.33;;
15261;SDS011;7733;51.554;13.590;2024-03-08T08:10:14;31.40;;;26.77;;
15261;SDS011;7733;51.554;13.590;2024-03-08T08:12:50;32.53;;;26.63;;
15261;SDS011;7733;51.554;13.590;2024-03-08T08:15:19;31.97;;;27.63;;
15261;SDS011;7733;51.554;13.590;2024-03-08T08:17:45;31.57;;;26.27;;
15261;SDS011;7733;51.554;13.590;2024-03-08T08:20:12;36.43;;;28.73;;
15261;SDS011;7733;51.554;13.590;2024-03-08T08:22:38;32.60;;;26.20;;
15261;SDS011;7733;51.554;13.590;2024-03-08T08:25:05;31.10;;;26.37;;
15261;SDS011;7733;51.554;13.590;2024-03-08T08:27:32;30.97;;;25.37;;
15261;SDS011;7733;51.554;13.590;2024-03-08T08:29:58;31.43;;;26.93;;
15261;SDS011;7733;51.554;13.590;2024-03-08T08:32:24;33.00;;;27.97;;
15261;SDS011;7733;51.554;13.590;2024-03-08T08:34:50;30.27;;;25.63;;
15261;SDS011;7733;51.554;13.590;2024-03-08T08:37:15;29.03;;;25.43;;
15261;SDS011;7733;51.554;13.590;2024-03-08T08:39:41;29.80;;;25.73;;
15261;SDS011;7733;51.554;13.590;2024-03-08T08:42:07;31.30;;;25.83;;
15261;SDS011;7733;51.554;13.590;2024-03-08T08:44:34;30.13;;;25.83;;
15261;SDS011;7733;51.554;13.590;2024-03-08T08:47:01;30.70;;;24.87;;
15261;SDS011;7733;51.554;13.590;2024-03-08T08:49:28;30.30;;;25.53;;
15261;SDS011;7733;51.554;13.590;2024-03-08T08:51:55;27.33;;;24.00;;
15261;SDS011;7733;51.554;13.590;2024-03-08T08:54:23;29.30;;;24.27;;
15261;SDS011;7733;51.554;13.590;2024-03-08T08:56:50;27.43;;;24.17;;
15261;SDS011;7733;51.554;13.590;2024-03-08T08:59:16;31.10;;;26.33;;
15261;SDS011;7733;51.554;13.590;2024-03-08T09:01:45;31.37;;;24.23;;
15261;SDS011;7733;51.554;13.590;2024-03-08T09:04:15;25.50;;;22.67;;
15261;SDS011;7733;51.554;13.590;2024-03-08T09:06:41;28.80;;;24.73;;
15261;SDS011;7733;51.554;13.590;2024-03-08T09:09:07;26.40;;;23.53;;
15261;SDS011;7733;51.554;13.590;2024-03-08T09:11:38;26.33;;;23.50;;
15261;SDS011;7733;51.554;13.590;2024-03-08T09:14:06;29.33;;;23.80;;
15261;SDS011;7733;51.554;13.590;2024-03-08T09:16:33;26.40;;;23.03;;
15261;SDS011;7733;51.554;13.590;2024-03-08T09:18:58;28.77;;;23.57;;
15261;SDS011;7733;51.554;13.590;2024-03-08T09:21:25;29.97;;;23.53;;
15261;SDS011;7733;51.554;13.590;2024-03-08T09:23:52;26.47;;;23.03;;
15261;SDS011;7733;51.554;13.590;2024-03-08T09:26:18;26.50;;;23.53;;
15261;SDS011;7733;51.554;13.590;2024-03-08T09:28:44;25.63;;;22.77;;
15261;SDS011;7733;51.554;13.590;2024-03-08T09:31:11;25.87;;;22.00;;
15261;SDS011;7733;51.554;13.590;2024-03-08T09:33:37;25.27;;;22.00;;
15261;SDS011;7733;51.554;13.590;2024-03-08T09:36:04;26.90;;;24.00;;
15261;SDS011;7733;51.554;13.590;2024-03-08T09:38:32;26.80;;;22.60;;
15261;SDS011;7733;51.554;13.590;2024-03-08T09:40:59;24.37;;;21.80;;
15261;SDS011;7733;51.554;13.590;2024-03-08T09:43:27;24.03;;;21.50;;
15261;SDS011;7733;51.554;13.590;2024-03-08T09:45:53;23.80;;;21.13;;
15261;SDS011;7733;51.554;13.590;2024-03-08T09:48:20;23.43;;;20.07;;
15261;SDS011;7733;51.554;13.590;2024-03-08T09:50:48;21.50;;;19.23;;
15261;SDS011;7733;51.554;13.590;2024-03-08T09:53:14;21.17;;;18.97;;
15261;SDS011;7733;51.554;13.590;2024-03-08T09:55:41;20.17;;;18.07;;
15261;SDS011;7733;51.554;13.590;2024-03-08T09:58:10;21.80;;;19.40;;
15261;SDS011;7733;51.554;13.590;2024-03-08T10:00:52;20.90;;;18.70;;
15261;SDS011;7733;51.554;13.590;2024-03-08T10:03:19;21.70;;;19.10;;
15261;SDS011;7733;51.554;13.590;2024-03-08T10:05:45;19.90;;;17.80;;
15261;SDS011;7733;51.554;13.590;2024-03-08T10:08:11;18.53;;;16.63;;
15261;SDS011;7733;51.554;13.590;2024-03-08T10:10:38;19.00;;;17.10;;
15261;SDS011;7733;51.554;13.590;2024-03-08T10:13:07;16.53;;;14.93;;
15261;SDS011;7733;51.554;13.590;2024-03-08T10:15:35;19.90;;;16.23;;
15261;SDS011;7733;51.554;13.590;2024-03-08T10:18:03;17.53;;;15.73;;
15261;SDS011;7733;51.554;13.590;2024-03-08T10:20:30;15.93;;;14.33;;
15261;SDS011;7733;51.554;13.590;2024-03-08T10:23:00;18.00;;;16.10;;
15261;SDS011;7733;51.554;13.590;2024-03-08T10:25:28;15.93;;;14.13;;
15261;SDS011;7733;51.554;13.590;2024-03-08T10:27:57;17.30;;;14.10;;
15261;SDS011;7733;51.554;13.590;2024-03-08T10:30:23;16.90;;;15.00;;
15261;SDS011;7733;51.554;13.590;2024-03-08T10:32:49;15.03;;;13.60;;
15261;SDS011;7733;51.554;13.590;2024-03-08T10:35:16;13.70;;;12.40;;
15261;SDS011;7733;51.554;13.590;2024-03-08T10:40:18;10.07;;;9.17;;
15261;SDS011;7733;51.554;13.590;2024-03-08T10:42:51;12.00;;;9.47;;
15261;SDS011;7733;51.554;13.590;2024-03-08T10:45:35;10.80;;;9.70;;
15261;SDS011;7733;51.554;13.590;2024-03-08T10:48:28;10.17;;;9.17;;
15261;SDS011;7733;51.554;13.590;2024-03-08T10:51:02;10.37;;;9.23;;
15261;SDS011;7733;51.554;13.590;2024-03-08T10:53:28;10.80;;;9.80;;
15261;SDS011;7733;51.554;13.590;2024-03-08T10:55:57;10.40;;;9.47;;
15261;SDS011;7733;51.554;13.590;2024-03-08T10:58:26;11.13;;;10.07;;
15261;SDS011;7733;51.554;13.590;2024-03-08T11:00:57;11.33;;;10.23;;
15261;SDS011;7733;51.554;13.590;2024-03-08T11:09:27;10.20;;;9.13;;
15261;SDS011;7733;51.554;13.590;2024-03-08T11:12:22;9.07;;;8.27;;
15261;SDS011;7733;51.554;13.590;2024-03-08T11:14:51;9.70;;;8.70;;
15261;SDS011;7733;51.554;13.590;2024-03-08T11:19:55;9.67;;;8.37;;
15261;SDS011;7733;51.554;13.590;2024-03-08T11:22:22;9.17;;;8.30;;
15261;SDS011;7733;51.554;13.590;2024-03-08T11:25:01;8.73;;;7.93;;
15261;SDS011;7733;51.554;13.590;2024-03-08T11:27:33;7.57;;;6.97;;
15261;SDS011;7733;51.554;13.590;2024-03-08T11:30:05;7.70;;;6.83;;
15261;SDS011;7733;51.554;13.590;2024-03-08T11:32:36;8.10;;;7.37;;
15261;SDS011;7733;51.554;13.590;2024-03-08T11:35:06;8.63;;;7.80;;
15261;SDS011;7733;51.554;13.590;2024-03-08T11:37:44;8.17;;;7.47;;
15261;SDS011;7733;51.554;13.590;2024-03-08T11:40:13;6.60;;;6.00;;
15261;SDS011;7733;51.554;13.590;2024-03-08T11:42:47;8.37;;;7.67;;
15261;SDS011;7733;51.554;13.590;2024-03-08T11:45:17;6.97;;;6.47;;
15261;SDS011;7733;51.554;13.590;2024-03-08T11:47:46;6.80;;;6.20;;
15261;SDS011;7733;51.554;13.590;2024-03-08T11:50:15;7.03;;;6.40;;
15261;SDS011;7733;51.554;13.590;2024-03-08T11:52:43;6.73;;;6.13;;
15261;SDS011;7733;51.554;13.590;2024-03-08T11:55:09;7.93;;;6.13;;
15261;SDS011;7733;51.554;13.590;2024-03-08T11:57:38;6.70;;;6.10;;
15261;SDS011;7733;51.554;13.590;2024-03-08T12:00:04;7.17;;;5.77;;
15261;SDS011;7733;51.554;13.590;2024-03-08T12:02:32;6.33;;;5.83;;
15261;SDS011;7733;51.554;13.590;2024-03-08T12:05:03;6.40;;;5.90;;
15261;SDS011;7733;51.554;13.590;2024-03-08T12:07:35;6.40;;;5.90;;
15261;SDS011;7733;51.554;13.590;2024-03-08T12:10:16;6.97;;;6.33;;
15261;SDS011;7733;51.554;13.590;2024-03-08T12:12:46;6.40;;;5.73;;
15261;SDS011;7733;51.554;13.590;2024-03-08T12:15:16;7.03;;;6.33;;
15261;SDS011;7733;51.554;13.590;2024-03-08T12:17:44;9.70;;;8.70;;
15261;SDS011;7733;51.554;13.590;2024-03-08T12:22:47;6.00;;;5.60;;
15261;SDS011;7733;51.554;13.590;2024-03-08T12:25:14;6.50;;;6.00;;
15261;SDS011;7733;51.554;13.590;2024-03-08T12:27:41;5.73;;;5.33;;
15261;SDS011;7733;51.554;13.590;2024-03-08T12:32:58;5.90;;;5.40;;
15261;SDS011;7733;51.554;13.590;2024-03-08T12:35:29;6.13;;;5.47;;
15261;SDS011;7733;51.554;13.590;2024-03-08T12:37:57;6.53;;;5.93;;
15261;SDS011;7733;51.554;13.590;2024-03-08T12:40:28;6.67;;;6.10;;
15261;SDS011;7733;51.554;13.590;2024-03-08T12:42:57;7.67;;;5.77;;
15261;SDS011;7733;51.554;13.590;2024-03-08T12:45:24;6.33;;;5.73;;
15261;SDS011;7733;51.554;13.590;2024-03-08T12:47:51;6.40;;;5.90;;
15261;SDS011;7733;51.554;13.590;2024-03-08T12:50:18;6.70;;;6.10;;
15261;SDS011;7733;51.554;13.590;2024-03-08T12:52:48;7.10;;;6.30;;
15261;SDS011;7733;51.554;13.590;2024-03-08T12:55:14;6.40;;;5.87;;
15261;SDS011;7733;51.554;13.590;2024-03-08T12:57:43;6.10;;;5.60;;
15261;SDS011;7733;51.554;13.590;2024-03-08T13:00:09;6.03;;;5.47;;
15261;SDS011;7733;51.554;13.590;2024-03-08T13:02:43;6.13;;;5.77;;
15261;SDS011;7733;51.554;13.590;2024-03-08T13:05:14;6.40;;;5.90;;
15261;SDS011;7733;51.554;13.590;2024-03-08T13:07:41;6.20;;;5.57;;
15261;SDS011;7733;51.554;13.590;2024-03-08T13:10:11;6.57;;;6.07;;
15261;SDS011;7733;51.554;13.590;2024-03-08T13:12:44;7.20;;;6.70;;
15261;SDS011;7733;51.554;13.590;2024-03-08T13:15:10;8.50;;;6.77;;
15261;SDS011;7733;51.554;13.590;2024-03-08T13:17:40;7.67;;;6.97;;
15261;SDS011;7733;51.554;13.590;2024-03-08T13:20:07;6.87;;;6.20;;
15261;SDS011;7733;51.554;13.590;2024-03-08T13:22:34;8.77;;;7.20;;
15261;SDS011;7733;51.554;13.590;2024-03-08T13:25:01;7.40;;;6.70;;
15261;SDS011;7733;51.554;13.590;2024-03-08T13:27:28;8.17;;;7.37;;
15261;SDS011;7733;51.554;13.590;2024-03-08T13:29:54;8.20;;;7.50;;
15261;SDS011;7733;51.554;13.590;2024-03-08T13:32:20;8.23;;;7.53;;
15261;SDS011;7733;51.554;13.590;2024-03-08T13:34:47;7.30;;;6.70;;
15261;SDS011;7733;51.554;13.590;2024-03-08T13:37:13;7.13;;;6.60;;
15261;SDS011;7733;51.554;13.590;2024-03-08T13:39:41;7.03;;;6.47;;
15261;SDS011;7733;51.554;13.590;2024-03-08T13:42:15;6.90;;;6.30;;
15261;SDS011;7733;51.554;13.590;2024-03-08T13:44:47;8.13;;;7.53;;
15261;SDS011;7733;51.554;13.590;2024-03-08T13:47:18;8.10;;;7.23;;
15261;SDS011;7733;51.554;13.590;2024-03-08T13:49:43;8.23;;;7.43;;
15261;SDS011;7733;51.554;13.590;2024-03-08T13:52:11;7.43;;;6.87;;
15261;SDS011;7733;51.554;13.590;2024-03-08T13:54:41;8.03;;;7.27;;
15261;SDS011;7733;51.554;13.590;2024-03-08T13:57:07;7.97;;;7.27;;
15261;SDS011;7733;51.554;13.590;2024-03-08T13:59:33;8.07;;;7.37;;
15261;SDS011;7733;51.554;13.590;2024-03-08T14:02:00;8.13;;;7.43;;
15261;SDS011;7733;51.554;13.590;2024-03-08T14:04:30;8.67;;;7.87;;
15261;SDS011;7733;51.554;13.590;2024-03-08T14:06:56;8.60;;;7.87;;
15261;SDS011;7733;51.554;13.590;2024-03-08T14:09:26;8.23;;;7.53;;
15261;SDS011;7733;51.554;13.590;2024-03-08T14:11:54;9.13;;;8.23;;
15261;SDS011;7733;51.554;13.590;2024-03-08T14:14:20;9.07;;;8.27;;
15261;SDS011;7733;51.554;13.590;2024-03-08T14:16:48;8.43;;;7.73;;
15261;SDS011;7733;51.554;13.590;2024-03-08T14:19:17;9.10;;;8.20;;
15261;SDS011;7733;51.554;13.590;2024-03-08T14:21:44;9.27;;;8.40;;
15261;SDS011;7733;51.554;13.590;2024-03-08T14:24:10;9.07;;;8.37;;
15261;SDS011;7733;51.554;13.590;2024-03-08T14:26:36;9.53;;;8.73;;
15261;SDS011;7733;51.554;13.590;2024-03-08T14:29:03;9.33;;;8.63;;
15261;SDS011;7733;51.554;13.590;2024-03-08T14:31:30;8.57;;;7.87;;
15261;SDS011;7733;51.554;13.590;2024-03-08T14:33:56;9.80;;;8.80;;
15261;SDS011;7733;51.554;13.590;2024-03-08T14:36:23;10.20;;;9.27;;
15261;SDS011;7733;51.554;13.590;2024-03-08T14:38:50;10.27;;;9.20;;
15261;SDS011;7733;51.554;13.590;2024-03-08T14:41:17;10.37;;;9.37;;
15261;SDS011;7733;51.554;13.590;2024-03-08T14:43:43;11.20;;;9.50;;
15261;SDS011;7733;51.554;13.590;2024-03-08T14:46:12;11.07;;;10.10;;